KBDU

Boulder Municipal Airport

Boulder, Colorado, USA
METAR KBDU 161330Z AUTO 23004KT 10SM CLR 00/M10 A3029 RMK AO2
Observed Flight Rules
Dec-16 @ 13:30 UTC (12 minutes ago) Visual Flight Rules
Wind Visibility Clouds
230° at 4 knots 10 miles
  • Clear skies
Temperatures Readings
Current 0°C / 32°F
Dewpoint -10°C / 14°F
Humidity 47%
Altimeter 30.29" Hg
Pressure 1026 hPa
Elevation 1612
METAR KBDU 161330Z AUTO 23004KT 10SM CLR 00/M10 A3029 RMK AO2
Observed Flight Rules
Dec-16 @ 13:30 UTC
(12 minutes ago)
VFR
Wind Visibility
230° at 4 knots 10 miles
Clouds
  • Clear skies
Temperature Dewpoint
0°C / 32°F -10°C / 14°F
Humidity Altimeter Pressure
47% 30.29" Hg 1026 hPa